Time;durP1;ratioP1;P1;durP2;ratioP2;P2;SDS_P1;SDS_P2;PMS_P1;PMS_P2;Temp;Humidity;BMP_temperature;BMP_pressure;BME280_temperature;BME280_humidity;BME280_pressure;Samples;Min_cycle;Max_cycle;Signal;HPM_P1;HPM_P2
2021/09/05 00:01:04;;;;;;;6.30;5.70;;;;;;;11.86;73.79;98662.97;5041732;28;20059;-77
2021/09/05 00:03:30;;;;;;;7.55;5.97;;;;;;;11.95;73.68;98676.47;5074856;28;20191;-77
2021/09/05 00:05:56;;;;;;;7.20;5.60;;;;;;;11.85;74.39;98674.69;5058531;28;20507;-77
2021/09/05 00:08:22;;;;;;;7.53;5.57;;;;;;;11.83;74.12;98668.63;5057970;28;20082;-77
2021/09/05 00:10:48;;;;;;;6.45;5.85;;;;;;;11.97;74.02;98671.81;5057940;28;20504;-77
2021/09/05 00:13:14;;;;;;;6.82;6.10;;;;;;;12.04;73.80;98686.31;5008057;28;20250;-77
2021/09/05 00:15:40;;;;;;;6.75;6.15;;;;;;;11.96;73.76;98683.50;5058288;28;20105;-76
2021/09/05 00:18:05;;;;;;;6.78;6.18;;;;;;;11.98;73.49;98686.88;5041142;28;20041;-77
2021/09/05 00:20:33;;;;;;;7.15;6.22;;;;;;;11.97;73.61;98687.88;5057662;28;20074;-76
2021/09/05 00:22:59;;;;;;;7.68;6.18;;;;;;;11.85;73.42;98677.38;5041115;28;20049;-75
2021/09/05 00:25:25;;;;;;;6.97;6.38;;;;;;;11.82;73.38;98677.63;5057685;28;20471;-77
2021/09/05 00:28:06;;;;;;;11.52;6.93;;;;;;;11.85;73.52;98690.75;5045569;28;20068;-77
2021/09/05 00:30:49;;;;;;;9.13;6.40;;;;;;;11.76;73.29;98699.63;5074461;28;20060;-77
2021/09/05 00:33:15;;;;;;;7.25;6.40;;;;;;;11.71;73.40;98698.38;5074026;28;20140;-79
2021/09/05 00:35:41;;;;;;;7.43;6.70;;;;;;;11.55;73.43;98689.13;5057533;28;20131;-78
2021/09/05 00:38:07;;;;;;;7.57;6.78;;;;;;;11.51;73.37;98693.09;5073047;28;20395;-78
2021/09/05 00:40:33;;;;;;;7.85;7.05;;;;;;;11.50;73.72;98704.75;5073769;28;20044;-79
2021/09/05 00:42:59;;;;;;;9.55;7.38;;;;;;;11.40;74.19;98706.63;5074005;28;20411;-78
2021/09/05 00:45:25;;;;;;;8.18;7.38;;;;;;;11.37;74.15;98710.44;5057758;28;20044;-76
2021/09/05 00:47:51;;;;;;;8.05;7.20;;;;;;;11.29;73.95;98707.63;5057421;28;20110;-78
2021/09/05 00:50:18;;;;;;;8.23;7.50;;;;;;;11.25;73.96;98706.22;5040976;28;20095;-78
2021/09/05 00:52:44;;;;;;;8.23;7.43;;;;;;;11.24;73.88;98717.91;5073821;28;20123;-78
2021/09/05 00:55:10;;;;;;;8.50;7.70;;;;;;;11.12;74.26;98711.84;5008167;28;20121;-76
2021/09/05 00:57:38;;;;;;;8.93;8.02;;;;;;;11.04;74.17;98721.56;5057445;28;20053;-76
2021/09/05 01:00:08;;;;;;;8.60;7.80;;;;;;;11.01;74.45;98727.19;5041008;28;20049;-75
2021/09/05 01:02:35;;;;;;;9.20;8.30;;;;;;;10.85;74.92;98715.22;5073477;28;20040;-78
2021/09/05 01:05:01;;;;;;;8.35;7.65;;;;;;;10.79;75.17;98718.44;5024003;28;20127;-77
2021/09/05 01:07:27;;;;;;;8.13;7.32;;;;;;;10.78;75.31;98740.84;5023852;28;20393;-78
2021/09/05 01:09:55;;;;;;;9.20;8.30;;;;;;;10.76;75.37;98750.84;5057391;28;20045;-76
2021/09/05 01:12:21;;;;;;;8.98;8.02;;;;;;;10.62;76.21;98740.53;5056944;28;20041;-79
2021/09/05 01:14:47;;;;;;;10.00;9.00;;;;;;;10.59;75.89;98743.47;5040167;28;20070;-79
2021/09/05 01:17:13;;;;;;;9.35;8.45;;;;;;;10.61;76.01;98760.25;5056742;28;20040;-79
2021/09/05 01:19:57;;;;;;;9.25;8.35;;;;;;;10.48;76.22;98748.94;5059294;28;20081;-78
2021/09/05 01:22:42;;;;;;;9.68;8.77;;;;;;;10.53;76.34;98770.75;5059180;28;20068;-77
2021/09/05 01:25:37;;;;;;;9.10;8.32;;;;;;;10.52;76.43;98777.06;5047275;28;20049;-78
2021/09/05 01:28:23;;;;;;;9.27;8.38;;;;;;;10.49;76.50;98772.84;5069284;28;20570;-78
2021/09/05 01:31:09;;;;;;;13.82;8.68;;;;;;;10.43;76.01;98763.56;5059021;28;20040;-78
2021/09/05 01:33:54;;;;;;;9.80;8.80;;;;;;;10.50;76.29;98784.41;5059086;28;20044;-78
2021/09/05 01:36:55;;;;;;;9.52;8.23;;;;;;;10.33;76.14;98751.97;5095361;28;20138;-79
2021/09/05 01:39:40;;;;;;;9.18;8.27;;;;;;;10.44;75.83;98775.94;5075976;28;20044;-78
2021/09/05 01:42:32;;;;;;;9.55;8.75;;;;;;;10.24;75.88;98763.47;5053742;28;20064;-78
2021/09/05 01:45:24;;;;;;;10.13;8.77;;;;;;;10.23;76.63;98783.16;5072136;28;20044;-79
2021/09/05 01:48:08;;;;;;;9.55;8.55;;;;;;;10.01;76.75;98767.31;5073030;28;20522;-77
2021/09/05 01:50:49;;;;;;;9.02;8.13;;;;;;;10.00;76.78;98786.94;5029206;28;20136;-78
2021/09/05 01:53:34;;;;;;;9.40;8.27;;;;;;;9.92;77.14;98793.78;5044741;28;20483;-78
2021/09/05 01:56:20;;;;;;;10.02;9.13;;;;;;;9.84;76.58;98782.94;5044585;28;20056;-78
2021/09/05 01:59:06;;;;;;;9.15;8.32;;;;;;;9.81;76.67;98788.53;5031056;28;20094;-79
2021/09/05 02:02:04;;;;;;;10.03;9.10;;;;;;;9.92;76.20;98801.81;5061348;28;20052;-79
2021/09/05 02:04:55;;;;;;;17.38;8.27;;;;;;;9.87;76.15;98819.22;5042440;28;20057;-79
2021/09/05 02:07:47;;;;;;;9.80;8.82;;;;;;;9.84;75.86;98825.66;5064594;28;20063;-79
2021/09/05 02:10:33;;;;;;;9.50;8.50;;;;;;;9.87;75.83;98822.72;5044665;28;20056;-78
2021/09/05 02:13:25;;;;;;;10.75;8.90;;;;;;;9.65;76.12;98815.69;5046504;28;20059;-84
2021/09/05 02:16:30;;;;;;;8.82;7.93;;;;;;;9.72;76.02;98837.38;5068583;28;20399;-82
2021/09/05 02:19:21;;;;;;;10.23;7.90;;;;;;;9.71;75.92;98833.84;5076057;28;20117;-83
2021/09/05 02:22:19;;;;;;;8.05;7.25;;;;;;;9.70;75.58;98833.97;5040825;28;20056;-84
2021/09/05 02:25:05;;;;;;;7.97;7.25;;;;;;;9.74;75.35;98846.06;5014689;28;20089;-84
2021/09/05 02:27:50;;;;;;;9.13;7.20;;;;;;;9.81;75.27;98849.91;5058308;28;20048;-84
2021/09/05 02:30:44;;;;;;;11.45;7.50;;;;;;;9.79;75.33;98854.56;5059448;28;20036;-78
2021/09/05 02:33:25;;;;;;;9.43;8.52;;;;;;;9.88;75.17;98864.44;5072025;28;20052;-78
2021/09/05 02:36:19;;;;;;;8.73;7.93;;;;;;;9.93;75.09;98872.94;5030338;28;20048;-78
2021/09/05 02:39:11;;;;;;;9.00;8.18;;;;;;;9.97;75.29;98885.03;5053188;28;20060;-78
2021/09/05 02:42:08;;;;;;;8.10;7.35;;;;;;;9.95;75.16;98886.97;5059348;28;20049;-77
2021/09/05 02:44:54;;;;;;;10.20;7.80;;;;;;;10.00;75.00;98904.44;5057066;28;20495;-83
2021/09/05 02:47:43;;;;;;;8.27;7.13;;;;;;;9.94;75.22;98900.47;5043899;28;20360;-83
2021/09/05 02:50:35;;;;;;;7.72;7.03;;;;;;;9.97;75.11;98906.41;5048147;28;20117;-81
2021/09/05 02:53:21;;;;;;;7.82;7.03;;;;;;;10.13;74.36;98907.78;5056322;28;20040;-81
2021/09/05 02:56:16;;;;;;;7.55;6.85;;;;;;;10.24;74.01;98920.22;5078249;28;20059;-80
2021/09/05 02:59:12;;;;;;;7.63;6.20;;;;;;;10.20;73.73;98919.63;5078294;28;20564;-81
2021/09/05 03:02:04;;;;;;;9.23;6.10;;;;;;;10.27;73.41;98918.16;5077673;28;20039;-81
2021/09/05 03:04:48;;;;;;;8.32;6.55;;;;;;;10.42;73.48;98937.38;5063300;28;20591;-80
2021/09/05 03:07:37;;;;;;;7.60;6.90;;;;;;;10.57;72.90;98937.84;5064199;28;20417;-80
2021/09/05 03:10:35;;;;;;;6.97;6.00;;;;;;;10.60;73.00;98950.97;5054202;28;20052;-84
2021/09/05 03:13:20;;;;;;;7.00;6.40;;;;;;;10.74;72.72;98942.59;5049205;28;20498;-81
2021/09/05 03:16:04;;;;;;;7.00;6.30;;;;;;;10.80;72.23;98938.56;5091804;28;20040;-77
2021/09/05 03:18:31;;;;;;;6.45;5.85;;;;;;;10.92;71.41;98938.31;5091564;28;20482;-77
2021/09/05 03:21:16;;;;;;;5.93;5.38;;;;;;;11.12;71.74;98941.06;5064321;28;20036;-81
2021/09/05 03:23:56;;;;;;;5.57;5.18;;;;;;;11.37;70.63;98959.28;5063813;28;20044;-80
2021/09/05 03:26:45;;;;;;;4.70;4.30;;;;;;;11.45;69.54;98952.41;5052153;28;20040;-83
2021/09/05 03:29:14;;;;;;;5.72;5.10;;;;;;;11.46;68.95;98954.09;5093489;28;20044;-84
2021/09/05 03:31:58;;;;;;;4.97;4.07;;;;;;;11.37;67.92;98964.66;5049302;28;20044;-78
2021/09/05 03:34:56;;;;;;;4.28;3.88;;;;;;;11.21;67.33;98969.69;5091214;28;20593;-77
2021/09/05 03:37:41;;;;;;;3.70;3.35;;;;;;;10.92;67.86;98953.50;5091605;28;20048;-77
2021/09/05 03:40:33;;;;;;;4.55;3.83;;;;;;;11.11;67.51;98956.25;5051416;28;20419;-77
2021/09/05 03:43:18;;;;;;;4.07;3.72;;;;;;;11.16;67.21;98978.09;5063472;28;20109;-78
2021/09/05 03:46:03;;;;;;;3.70;3.40;;;;;;;11.17;66.41;98993.19;5063203;28;20040;-77
2021/09/05 03:48:46;;;;;;;8.10;3.53;;;;;;;11.14;65.69;98992.59;5091449;28;20076;-77
2021/09/05 03:51:12;;;;;;;3.78;3.00;;;;;;;11.12;65.56;98990.03;5074461;28;20398;-79
2021/09/05 03:53:45;;;;;;;3.63;2.83;;;;;;;10.98;64.54;99003.78;5044052;28;20074;-80
2021/09/05 03:56:12;;;;;;;3.70;3.40;;;;;;;10.92;64.82;98991.78;5040900;28;20051;-80
2021/09/05 03:58:38;;;;;;;3.20;2.90;;;;;;;11.04;64.74;99007.75;5037666;28;20048;-81
2021/09/05 04:01:04;;;;;;;3.20;2.90;;;;;;;11.21;64.47;99008.94;5032581;28;20074;-77
2021/09/05 04:03:33;;;;;;;;;;;;;;;11.08;62.91;99022.56;5071521;28;20100;-78
2021/09/05 04:06:01;;;;;;;4.00;2.50;;;;;;;11.00;63.15;99022.38;5037725;28;19916;-79
2021/09/05 04:08:48;;;;;;;2.47;2.28;;;;;;;10.83;62.91;99008.66;5037864;28;20496;-77
2021/09/05 04:11:14;;;;;;;2.65;2.45;;;;;;;11.06;63.02;99027.22;5026818;28;20233;-78
2021/09/05 04:13:40;;;;;;;3.67;2.10;;;;;;;11.18;61.66;99026.97;5041128;28;20048;-77
2021/09/05 04:16:06;;;;;;;2.58;2.35;;;;;;;11.18;61.30;99031.47;5057850;28;20450;-78
2021/09/05 04:18:32;;;;;;;2.17;2.00;;;;;;;11.16;61.22;99028.06;5008307;28;20037;-78
2021/09/05 04:20:58;;;;;;;2.90;2.70;;;;;;;11.15;62.24;99032.59;5074346;28;20495;-79
2021/09/05 04:23:24;;;;;;;4.28;2.80;;;;;;;11.11;62.07;99046.38;5008486;28;20040;-78
2021/09/05 04:25:50;;;;;;;2.90;2.70;;;;;;;11.15;62.29;99058.50;5057715;28;20496;-77
2021/09/05 04:28:16;;;;;;;3.10;2.80;;;;;;;11.25;62.35;99048.69;5041275;28;20131;-77
2021/09/05 04:30:42;;;;;;;3.15;2.85;;;;;;;11.48;62.16;99053.84;5041401;28;20148;-78
2021/09/05 04:33:09;;;;;;;4.20;2.70;;;;;;;11.73;61.86;99056.00;5024961;28;20526;-79
2021/09/05 04:35:35;;;;;;;6.70;2.88;;;;;;;11.77;60.77;99060.13;5041164;28;20040;-77
2021/09/05 04:38:01;;;;;;;3.20;3.00;;;;;;;11.85;60.54;99057.66;5074572;28;20071;-76
2021/09/05 04:40:27;;;;;;;2.60;2.38;;;;;;;11.95;59.28;99060.31;5074043;28;20044;-77
2021/09/05 04:42:53;;;;;;;3.20;2.45;;;;;;;11.80;59.23;99054.47;5024636;28;20090;-78
2021/09/05 04:45:19;;;;;;;3.45;2.17;;;;;;;11.88;59.31;99068.09;5041037;28;20189;-77
2021/09/05 04:47:45;;;;;;;2.72;2.40;;;;;;;11.95;57.69;99067.53;5074121;28;20153;-76
2021/09/05 04:50:11;;;;;;;2.70;2.30;;;;;;;11.90;57.68;99068.78;5057212;28;20040;-76
2021/09/05 04:52:37;;;;;;;2.33;2.13;;;;;;;11.85;57.67;99087.13;5023799;28;20085;-75
2021/09/05 04:55:03;;;;;;;4.10;2.10;;;;;;;11.82;58.42;99079.31;5056910;28;20040;-75
2021/09/05 04:57:30;;;;;;;3.00;2.40;;;;;;;11.95;58.22;99087.13;5023226;28;20049;-76
2021/09/05 04:59:56;;;;;;;2.30;2.20;;;;;;;12.00;56.55;99062.59;5040113;28;20067;-76
2021/09/05 05:02:22;;;;;;;2.28;2.13;;;;;;;12.26;54.93;99082.53;5023835;28;20037;-76
2021/09/05 05:04:48;;;;;;;2.30;2.10;;;;;;;12.28;54.63;99099.31;5040361;28;20056;-76
2021/09/05 05:07:14;;;;;;;4.85;2.42;;;;;;;12.42;54.96;99103.41;5082256;28;20058;-77
2021/09/05 05:09:43;;;;;;;2.38;2.17;;;;;;;12.33;55.24;99115.78;5051298;28;20064;-78
2021/09/05 05:12:12;;;;;;;3.08;2.50;;;;;;;12.20;55.19;99101.84;5073468;28;20056;-78
2021/09/05 05:14:39;;;;;;;6.75;2.45;;;;;;;12.10;54.91;99075.00;5026745;28;20411;-79
2021/09/05 05:17:05;;;;;;;2.97;2.50;;;;;;;12.38;54.19;99096.63;5043914;28;20063;-77
2021/09/05 05:19:31;;;;;;;2.05;1.95;;;;;;;12.50;53.76;99097.34;5052980;28;20052;-77
2021/09/05 05:21:57;;;;;;;1.60;1.50;;;;;;;12.48;52.70;99102.00;5069198;28;20078;-79
2021/09/05 05:24:23;;;;;;;3.13;1.80;;;;;;;12.60;53.68;99079.44;5054282;28;20617;-79
2021/09/05 05:26:49;;;;;;;3.33;1.80;;;;;;;12.88;52.90;99088.41;5078112;28;20142;-79
2021/09/05 05:29:15;;;;;;;1.90;1.80;;;;;;;13.20;51.24;99096.13;5046462;28;20498;-77
2021/09/05 05:31:41;;;;;;;1.85;1.75;;;;;;;13.05;50.40;99084.13;5061756;28;20122;-76
2021/09/05 05:34:07;;;;;;;3.22;1.70;;;;;;;13.15;50.35;99109.13;5048672;28;20120;-76
2021/09/05 05:36:33;;;;;;;2.08;1.90;;;;;;;12.83;51.06;99113.00;5039955;28;20222;-77
2021/09/05 05:38:59;;;;;;;1.52;1.42;;;;;;;12.70;51.12;99107.06;5039932;28;20047;-77
2021/09/05 05:41:25;;;;;;;1.40;1.30;;;;;;;12.79;51.03;99092.81;5055939;28;20098;-76
2021/09/05 05:43:51;;;;;;;1.75;1.45;;;;;;;13.17;49.37;99098.25;5022654;28;20049;-77
2021/09/05 05:46:18;;;;;;;1.77;1.63;;;;;;;13.57;48.90;99116.78;5023081;28;20040;-77
2021/09/05 05:48:44;;;;;;;2.85;1.52;;;;;;;13.70;48.13;99120.00;5038976;28;20113;-77
2021/09/05 05:51:10;;;;;;;2.28;1.23;;;;;;;13.73;47.84;99102.75;5022603;28;20068;-76
2021/09/05 05:53:36;;;;;;;1.15;1.13;;;;;;;13.72;47.74;99131.44;5022322;28;20411;-77
2021/09/05 05:56:02;;;;;;;2.05;1.33;;;;;;;13.50;46.77;99126.44;5038736;28;20474;-76
2021/09/05 05:58:29;;;;;;;3.13;1.52;;;;;;;13.29;46.11;99123.97;5039019;28;20065;-77
2021/09/05 06:00:55;;;;;;;0.90;0.90;;;;;;;13.48;45.47;99123.91;5039410;28;20059;-78
2021/09/05 06:03:21;;;;;;;3.10;1.20;;;;;;;13.59;45.24;99123.72;5038497;28;20055;-77
2021/09/05 06:05:48;;;;;;;3.10;0.98;;;;;;;13.81;45.26;99133.25;5022552;28;20047;-77
2021/09/05 06:08:14;;;;;;;1.20;1.10;;;;;;;13.92;45.20;99107.19;5041349;28;20471;-78
2021/09/05 06:10:40;;;;;;;1.42;1.30;;;;;;;14.18;44.30;99135.03;5047146;28;20143;-79
2021/09/05 06:13:06;;;;;;;1.83;1.60;;;;;;;14.29;42.86;99124.06;5005764;28;20076;-77
2021/09/05 06:15:32;;;;;;;1.20;1.10;;;;;;;14.46;41.59;99151.13;5021977;28;20513;-76
2021/09/05 06:17:58;;;;;;;0.93;0.93;;;;;;;14.34;41.49;99154.03;5054838;28;20135;-78
2021/09/05 06:20:24;;;;;;;1.00;1.00;;;;;;;14.49;41.48;99154.38;5038712;28;20040;-77
2021/09/05 06:22:50;;;;;;;1.02;1.02;;;;;;;14.49;41.32;99138.25;5055072;28;20044;-77
2021/09/05 06:25:16;;;;;;;1.10;1.00;;;;;;;14.79;41.61;99138.88;5054180;28;20043;-78
2021/09/05 06:27:42;;;;;;;1.33;1.30;;;;;;;14.88;40.99;99129.00;5021878;28;20048;-76
2021/09/05 06:30:09;;;;;;;2.88;1.30;;;;;;;14.88;40.58;99150.53;5071331;28;20102;-78
2021/09/05 06:32:35;;;;;;;2.90;1.60;;;;;;;14.86;41.36;99147.19;5021741;28;20415;-77
2021/09/05 06:35:02;;;;;;;1.77;1.52;;;;;;;15.30;40.06;99156.09;5054558;28;20051;-79
2021/09/05 06:37:28;;;;;;;11.40;1.70;;;;;;;15.22;40.04;99143.41;5021461;28;20438;-76
2021/09/05 06:39:54;;;;;;;1.92;1.50;;;;;;;15.07;40.15;99161.13;5037388;28;20040;-79
2021/09/05 06:42:20;;;;;;;2.00;1.30;;;;;;;15.14;40.99;99146.03;5038102;28;20067;-79
2021/09/05 06:44:46;;;;;;;1.70;1.50;;;;;;;15.30;40.13;99142.63;5021400;28;20040;-79
2021/09/05 06:47:12;;;;;;;2.65;1.20;;;;;;;15.37;39.70;99153.63;5037858;28;20036;-78
2021/09/05 06:49:38;;;;;;;1.50;1.40;;;;;;;15.64;40.41;99145.34;5037834;28;20392;-77
2021/09/05 06:52:05;;;;;;;1.50;1.40;;;;;;;15.67;39.33;99150.47;5054298;28;20052;-76
2021/09/05 06:54:31;;;;;;;3.40;1.55;;;;;;;15.51;39.82;99163.81;5021001;28;20461;-79
2021/09/05 06:56:57;;;;;;;2.00;1.38;;;;;;;15.21;39.85;99165.13;5020972;28;20070;-78
2021/09/05 06:59:22;;;;;;;3.88;1.50;;;;;;;14.97;40.52;99166.63;5037222;28;20066;-76
2021/09/05 07:01:48;;;;;;;3.85;1.20;;;;;;;15.25;38.94;99159.25;5021026;28;20052;-77
2021/09/05 07:04:14;;;;;;;4.78;1.40;;;;;;;15.46;39.54;99166.16;5037712;28;20080;-78
2021/09/05 07:06:40;;;;;;;1.88;1.30;;;;;;;15.62;39.55;99177.03;5005277;28;20062;-77
2021/09/05 07:09:06;;;;;;;0.98;0.95;;;;;;;15.39;39.32;99184.78;5021178;28;20094;-76
2021/09/05 07:11:32;;;;;;;1.15;1.05;;;;;;;15.00;39.75;99160.06;5020339;28;20135;-76
2021/09/05 07:13:58;;;;;;;3.33;1.20;;;;;;;15.40;38.77;99173.00;5054024;28;20098;-76
2021/09/05 07:16:24;;;;;;;2.40;1.30;;;;;;;15.54;37.38;99168.88;5037206;28;20044;-79
2021/09/05 07:18:50;;;;;;;0.95;0.95;;;;;;;15.33;38.08;99192.63;5004898;28;20562;-76
2021/09/05 07:21:16;;;;;;;3.30;1.00;;;;;;;15.14;37.54;99169.44;5053872;28;20123;-77
2021/09/05 07:23:42;;;;;;;2.97;1.25;;;;;;;15.23;37.08;99182.81;5072183;28;20105;-76
2021/09/05 07:26:08;;;;;;;1.00;1.00;;;;;;;15.76;37.03;99168.38;5036800;28;20107;-77
2021/09/05 07:28:36;;;;;;;1.40;1.13;;;;;;;16.34;35.78;99182.09;5020910;28;20040;-77
2021/09/05 07:31:03;;;;;;;1.08;0.90;;;;;;;16.21;35.48;99193.34;5070509;28;20055;-78
2021/09/05 07:33:29;;;;;;;2.35;1.38;;;;;;;15.89;35.75;99177.88;5037433;28;20040;-80
2021/09/05 07:35:55;;;;;;;1.85;1.33;;;;;;;15.98;36.13;99193.06;5004868;28;20040;-81
2021/09/05 07:38:21;;;;;;;1.05;1.05;;;;;;;15.90;36.34;99190.34;5021159;28;20123;-78
2021/09/05 07:40:47;;;;;;;1.23;1.13;;;;;;;15.67;37.66;99214.28;5036582;28;20524;-79
2021/09/05 07:43:14;;;;;;;1.00;1.00;;;;;;;15.40;36.29;99202.63;5037247;28;20048;-79
2021/09/05 07:45:39;;;;;;;5.00;1.10;;;;;;;15.54;36.34;99195.84;5037773;28;20098;-78
2021/09/05 07:48:06;;;;;;;1.20;1.10;;;;;;;15.87;36.37;99190.66;5039835;28;20044;-77
2021/09/05 07:50:32;;;;;;;1.15;1.15;;;;;;;16.04;37.26;99197.81;5057479;28;20491;-77
2021/09/05 07:52:58;;;;;;;1.45;1.35;;;;;;;16.24;36.59;99207.34;5057857;28;20071;-77
2021/09/05 07:55:23;;;;;;;2.03;1.05;;;;;;;15.90;35.90;99214.59;5056649;28;20496;-77
2021/09/05 07:57:49;;;;;;;1.20;1.10;;;;;;;15.71;36.53;99191.41;5090885;28;20491;-76
2021/09/05 08:00:16;;;;;;;1.17;1.17;;;;;;;16.08;36.91;99195.66;5057685;28;20123;-79
2021/09/05 08:02:42;;;;;;;2.38;1.58;;;;;;;16.09;36.33;99213.50;5091038;28;20075;-78
2021/09/05 08:05:09;;;;;;;1.75;1.33;;;;;;;15.94;36.10;99219.50;5058062;28;20135;-78
2021/09/05 08:07:35;;;;;;;1.30;1.20;;;;;;;15.57;36.81;99209.00;5060716;28;20051;-77
2021/09/05 08:10:02;;;;;;;1.38;1.20;;;;;;;15.70;36.22;99190.56;5027273;28;20036;-78
2021/09/05 08:12:28;;;;;;;1.15;1.15;;;;;;;15.74;37.19;99229.66;5060815;28;20064;-77
2021/09/05 08:14:54;;;;;;;1.70;1.40;;;;;;;15.23;38.29;99201.66;5094419;28;20043;-78
2021/09/05 08:17:20;;;;;;;4.88;1.80;;;;;;;15.62;38.54;99217.44;5060411;28;20051;-76
2021/09/05 08:19:48;;;;;;;1.88;1.42;;;;;;;15.80;38.61;99217.41;5027484;28;20118;-75
2021/09/05 08:22:14;;;;;;;5.97;1.48;;;;;;;15.91;38.49;99224.38;5061398;28;20368;-77
2021/09/05 08:24:40;;;;;;;2.25;1.50;;;;;;;15.59;37.78;99233.06;5043437;28;20467;-77
2021/09/05 08:27:07;;;;;;;3.33;1.20;;;;;;;15.60;38.41;99227.50;5060773;28;20525;-76
2021/09/05 08:29:33;;;;;;;3.35;1.60;;;;;;;15.49;39.11;99231.31;5043872;28;20050;-78
2021/09/05 08:31:59;;;;;;;1.50;1.40;;;;;;;15.54;38.13;99228.16;5044084;28;20074;-75
2021/09/05 08:34:25;;;;;;;2.40;1.48;;;;;;;15.38;38.43;99222.63;5085739;28;20040;-78
2021/09/05 08:36:51;;;;;;;1.50;1.40;;;;;;;15.15;38.73;99249.19;5007406;28;20040;-77
2021/09/05 08:39:17;;;;;;;2.00;1.73;;;;;;;15.53;38.37;99226.44;5039323;28;20032;-77
2021/09/05 08:41:43;;;;;;;2.95;1.10;;;;;;;15.81;38.13;99256.84;5081569;28;20055;-76
2021/09/05 08:44:09;;;;;;;1.50;1.40;;;;;;;15.53;38.23;99245.31;5047157;28;20048;-75
2021/09/05 08:46:35;;;;;;;2.20;1.42;;;;;;;15.60;38.53;99240.97;5047933;28;20051;-75
2021/09/05 08:49:03;;;;;;;1.35;1.25;;;;;;;15.75;37.88;99236.75;5050358;28;20079;-75
2021/09/05 08:51:30;;;;;;;1.55;1.30;;;;;;;15.95;37.04;99245.47;5041160;28;20044;-76
2021/09/05 08:53:56;;;;;;;5.63;1.23;;;;;;;16.60;36.41;99236.81;5056940;28;20419;-76
2021/09/05 08:56:22;;;;;;;2.30;1.20;;;;;;;17.23;34.18;99249.81;5040679;28;20135;-77
2021/09/05 08:58:48;;;;;;;1.23;1.13;;;;;;;17.55;33.59;99240.00;5022622;28;20061;-76
2021/09/05 09:01:21;;;;;;;3.53;1.98;;;;;;;17.37;33.93;99237.47;5057023;28;20125;-78
2021/09/05 09:03:47;;;;;;;1.45;1.30;;;;;;;17.29;33.90;99242.03;5057526;28;20045;-76
2021/09/05 09:06:20;;;;;;;1.95;1.55;;;;;;;17.48;35.17;99242.53;5040015;28;20135;-76
2021/09/05 09:09:02;;;;;;;1.30;1.20;;;;;;;17.94;33.45;99247.41;5007797;28;20092;-77
2021/09/05 09:11:34;;;;;;;4.72;1.38;;;;;;;17.87;33.99;99246.44;5040308;28;20431;-78
2021/09/05 09:14:00;;;;;;;1.83;1.40;;;;;;;17.45;34.02;99251.00;5057524;28;20056;-79
2021/09/05 09:16:34;;;;;;;2.38;1.05;;;;;;;17.44;35.13;99270.06;5073439;28;20464;-78
2021/09/05 09:19:00;;;;;;;10.55;1.40;;;;;;;17.79;33.98;99260.81;5040110;28;20117;-79
2021/09/05 09:21:26;;;;;;;2.67;1.27;;;;;;;17.51;35.24;99252.16;5056499;28;20037;-78
2021/09/05 09:23:52;;;;;;;1.38;1.30;;;;;;;17.52;35.25;99259.25;5056600;28;20126;-78
2021/09/05 09:26:18;;;;;;;2.92;1.58;;;;;;;17.48;34.81;99266.03;5040017;28;20044;-78
2021/09/05 09:28:45;;;;;;;1.65;1.40;;;;;;;17.08;34.92;99262.28;5056607;28;20044;-78
2021/09/05 09:31:11;;;;;;;3.00;1.50;;;;;;;16.97;35.95;99270.72;5039868;28;20363;-80
2021/09/05 09:33:37;;;;;;;6.15;1.70;;;;;;;16.36;35.42;99275.38;5072140;28;20135;-79
2021/09/05 09:36:04;;;;;;;1.70;1.60;;;;;;;16.47;36.55;99279.59;5039568;28;20487;-77
2021/09/05 09:38:31;;;;;;;1.65;1.42;;;;;;;17.08;35.24;99273.09;5074203;28;20407;-78
2021/09/05 09:41:06;;;;;;;3.58;1.50;;;;;;;16.72;35.26;99283.25;5023195;28;20072;-78
2021/09/05 09:43:32;;;;;;;1.58;1.40;;;;;;;16.49;35.98;99289.22;5056240;28;20048;-78
2021/09/05 09:46:19;;;;;;;3.80;1.48;;;;;;;16.28;36.82;99278.00;5056167;28;20109;-80
2021/09/05 09:48:48;;;;;;;1.70;1.60;;;;;;;16.49;36.22;99274.91;5056259;28;20045;-79
2021/09/05 09:51:14;;;;;;;1.80;1.70;;;;;;;16.79;35.49;99275.38;5056726;28;20415;-80
2021/09/05 09:53:41;;;;;;;1.55;1.30;;;;;;;16.75;34.88;99281.09;5023128;28;20070;-80
2021/09/05 09:56:10;;;;;;;1.70;1.60;;;;;;;16.78;34.68;99292.59;5056548;28;20040;-80
2021/09/05 09:58:36;;;;;;;1.63;1.40;;;;;;;16.73;34.80;99290.31;5063493;28;20541;-81
2021/09/05 10:01:03;;;;;;;1.30;1.20;;;;;;;16.35;34.87;99278.19;5043304;28;20048;-80
2021/09/05 10:03:30;;;;;;;1.38;1.27;;;;;;;16.13;35.77;99283.13;5022824;28;20052;-79
2021/09/05 10:06:00;;;;;;;3.65;1.50;;;;;;;16.49;36.25;99283.00;5020975;28;20182;-80
2021/09/05 10:08:26;;;;;;;1.42;1.30;;;;;;;17.42;34.55;99280.22;5037517;28;20059;-83
2021/09/05 10:10:53;;;;;;;1.58;1.30;;;;;;;17.14;33.22;99288.63;5054859;28;20127;-84
2021/09/05 10:13:19;;;;;;;1.70;1.23;;;;;;;16.90;34.02;99285.88;5071957;28;20131;-86
2021/09/05 10:15:45;;;;;;;1.45;1.35;;;;;;;16.74;34.50;99279.41;5039162;28;20086;-86
2021/09/05 10:18:11;;;;;;;3.50;1.25;;;;;;;16.91;35.16;99298.34;5021807;28;20052;-79
2021/09/05 10:20:37;;;;;;;2.38;1.40;;;;;;;17.40;34.16;99303.84;5055234;28;20052;-81
2021/09/05 10:23:04;;;;;;;2.20;1.48;;;;;;;17.92;32.71;99304.38;5055689;28;20459;-84
2021/09/05 10:25:30;;;;;;;1.30;1.20;;;;;;;18.05;32.57;99289.47;5039763;28;20515;-84
2021/09/05 10:27:57;;;;;;;2.33;1.17;;;;;;;17.69;32.58;99292.56;5039114;28;20036;-84
2021/09/05 10:30:23;;;;;;;1.83;1.27;;;;;;;17.24;32.69;99281.22;5057713;28;20040;-84
2021/09/05 10:32:56;;;;;;;2.90;2.30;;;;;;;17.16;33.16;99312.78;5040577;28;20062;-85
2021/09/05 10:35:25;;;;;;;2.10;1.60;;;;;;;16.74;33.47;99322.59;5022828;28;20118;-82
2021/09/05 10:38:14;;;;;;;;;;;;;;;16.83;33.85;99318.06;5039252;28;20053;-84
2021/09/05 10:41:01;;;;;;;3.58;2.00;;;;;;;17.03;33.62;99313.22;5075523;28;19920;-89
2021/09/05 10:43:49;;;;;;;3.78;2.38;;;;;;;17.32;33.61;99314.66;5043869;28;20049;-82
2021/09/05 10:46:16;;;;;;;1.23;1.13;;;;;;;16.71;33.42;99320.19;5055626;28;20040;-80
2021/09/05 10:48:52;;;;;;;6.47;1.80;;;;;;;16.45;34.51;99311.31;5055078;28;20032;-81
2021/09/05 10:51:33;;;;;;;2.10;1.80;;;;;;;16.49;34.28;99320.78;5039783;28;20696;-83
2021/09/05 10:54:23;;;;;;;3.63;2.22;;;;;;;16.68;35.19;99309.72;5041272;28;20048;-81
2021/09/05 10:56:49;;;;;;;1.67;1.58;;;;;;;16.75;33.91;99327.00;5054217;28;20131;-80
2021/09/05 10:59:23;;;;;;;2.30;1.88;;;;;;;16.51;34.37;99303.41;5038501;28;20542;-82
2021/09/05 11:01:49;;;;;;;5.80;1.63;;;;;;;16.45;34.72;99316.72;5042853;28;20044;-81
2021/09/05 11:04:20;;;;;;;1.60;1.40;;;;;;;16.75;34.11;99318.88;5058729;28;20495;-81
2021/09/05 11:06:52;;;;;;;2.15;1.42;;;;;;;16.71;33.65;99319.34;5056813;28;20040;-81
2021/09/05 11:09:24;;;;;;;1.45;1.20;;;;;;;16.87;33.66;99318.59;5058901;28;20036;-83
2021/09/05 11:12:18;;;;;;;2.90;1.33;;;;;;;16.79;33.62;99311.31;5038174;28;20193;-82
2021/09/05 11:14:47;;;;;;;1.92;1.30;;;;;;;17.08;34.07;99321.69;5025090;28;20064;-82
2021/09/05 11:17:19;;;;;;;1.42;1.33;;;;;;;17.10;33.48;99327.78;5075089;28;20068;-84
2021/09/05 11:19:48;;;;;;;1.45;1.35;;;;;;;17.07;32.83;99329.94;5043939;28;20079;-84
2021/09/05 11:22:19;;;;;;;2.20;1.75;;;;;;;17.20;33.34;99333.88;5075153;28;20048;-82
2021/09/05 11:24:45;;;;;;;3.35;1.88;;;;;;;17.53;33.13;99320.44;5060002;28;20139;-83
2021/09/05 11:27:15;;;;;;;2.20;2.00;;;;;;;17.45;32.22;99328.50;5026282;28;20044;-82
2021/09/05 11:29:42;;;;;;;1.70;1.60;;;;;;;17.27;32.83;99335.94;5041278;28;20055;-82
2021/09/05 11:32:09;;;;;;;2.47;2.00;;;;;;;16.92;33.35;99335.13;5043255;28;20052;-84
2021/09/05 11:34:36;;;;;;;1.42;1.30;;;;;;;16.92;33.80;99332.44;5042095;28;20122;-84
2021/09/05 11:37:03;;;;;;;6.03;2.97;;;;;;;17.08;33.24;99323.56;5039674;28;20053;-84
2021/09/05 11:39:30;;;;;;;3.60;2.72;;;;;;;17.33;33.41;99329.84;5039134;28;20048;-83
2021/09/05 11:42:00;;;;;;;5.13;2.90;;;;;;;18.80;32.13;99335.97;5055688;28;20055;-79
2021/09/05 11:44:45;;;;;;;3.13;2.05;;;;;;;19.79;29.18;99314.56;5021728;28;20056;-82
2021/09/05 11:47:13;;;;;;;2.47;2.00;;;;;;;21.29;28.36;99323.38;5041682;28;20044;-81
2021/09/05 11:49:46;;;;;;;;;;;;;;;21.46;27.74;99318.56;5047506;28;20048;-77
2021/09/05 11:52:18;;;;;;;4.10;1.40;;;;;;;20.07;28.10;99329.22;5038144;28;20271;-78
2021/09/05 11:54:49;;;;;;;3.67;1.70;;;;;;;19.36;29.31;99319.59;5021863;28;20048;-78